Thunderstorms From: 26-05-2018 09:00 Until: 27-05-2018 05:00 warning for: Thunderstorms Level: Yellow info button

Although rather usual in this region, locally or potentially dangerous phenomena are expected. (such as local winds, summer thunderstorms, rising streams or high waves) Be aware and pay attention to the latest weather updates, especially if you carry out activities exposed to weather or close to a stream or shoreline. 


Meteo18 Weather Cam more information Meteo18 Weather Cam


warning for Thunderstorms more information blitzortung!


Rain radar more information rain snow radar


Visit our other weather sites:

Template documentation
and downloads

And another site



Weather Underground History page Text

Daily Summary for August 22, 2017 Units:  Metric    English   Both
« Previous Day
Next Day »
Daily Weekly Monthly Yearly Custom
  High: Low: Average:
Temperature: -17.8 °C -9.7 °C -5.1 °C
Dew Point: -17.8 °C -10.7 °C -9.4 °C
Humidity: Humidity % 41 % 64 %
Wind Speed: 0 km/h 0 km/h 4.8 km/h
Wind Gust: 0 km/h - -
Wind:- - SE
Pressure: 0 hPa 34371.3 hPa -
Precipitation: 0 mm    
Historical Graphs
 
 
Tabular Data for August 22, 2017
Time Temperature Dew Point Pressure Wind Wind Speed Wind Gust Humidity Rainfall Rate (Hourly)
-17.8 °C -17.8 °C 0 hPa Calm     Humidity % 0 mm
00:02 -7.3 °C -9.5 °C 34601.5 hPa Calm   7.7 km/h 78 % 0 mm
00:12 -7.4 °C -9.6 °C 34601.5 hPa Calm   5.1 km/h 78 % 0 mm
00:17 -7.6 °C -9.6 °C 34591.4 hPa Calm   5.1 km/h 79 % 0 mm
00:22 -7.6 °C -9.7 °C 34591.4 hPa North 2.6 km/h 5.1 km/h 79 % 0 mm
00:27 -7.6 °C -9.7 °C 34591.4 hPa Calm   5.1 km/h 79 % 0 mm
00:32 -7.7 °C -9.7 °C 34591.4 hPa Calm   5.1 km/h 79 % 0 mm
00:42 -7.8 °C -9.8 °C 34591.4 hPa Calm   2.6 km/h 80 % 0 mm
00:52 -7.8 °C -9.8 °C 34591.4 hPa Calm   2.6 km/h 80 % 0 mm
01:02 -7.9 °C -9.8 °C 34591.4 hPa Calm   2.6 km/h 81 % 0 mm
01:12 -8 °C -9.7 °C 34577.8 hPa Calm     82 % 0 mm
01:17 -8.1 °C -9.8 °C 34577.8 hPa Calm     82 % 0 mm
01:22 -8.2 °C -9.8 °C 34577.8 hPa Calm     83 % 0 mm
01:32 -8 °C -9.7 °C 34577.8 hPa NW 2.6 km/h   82 % 0 mm
01:37 -8 °C -9.7 °C 34577.8 hPa Calm   2.6 km/h 82 % 0 mm
01:42 -8 °C -9.7 °C 34577.8 hPa Calm   2.6 km/h 82 % 0 mm
01:52 -8 °C -9.8 °C 34577.8 hPa Calm   2.6 km/h 81 % 0 mm
02:02 -8.3 °C -9.9 °C 34577.8 hPa Calm   2.6 km/h 83 % 0 mm
02:12 -8.3 °C -9.8 °C 34567.7 hPa WNW 2.6 km/h 5.1 km/h 84 % 0 mm
02:17 -8.4 °C -9.9 °C 34567.7 hPa Calm   5.1 km/h 84 % 0 mm
02:22 -8.4 °C -9.9 °C 34567.7 hPa Calm   5.1 km/h 84 % 0 mm
02:32 -8.3 °C -9.8 °C 34567.7 hPa Calm   2.6 km/h 84 % 0 mm
02:37 -8.3 °C -9.9 °C 34567.7 hPa North 2.6 km/h 2.6 km/h 83 % 0 mm
02:42 -8.4 °C -10 °C 34567.7 hPa Calm   2.6 km/h 83 % 0 mm
02:52 -8.3 °C -9.9 °C 34567.7 hPa Calm   2.6 km/h 83 % 0 mm
02:57 -8.4 °C -10 °C 34567.7 hPa Calm   2.6 km/h 83 % 0 mm
03:02 -8.4 °C -9.9 °C 34567.7 hPa Calm   2.6 km/h 84 % 0 mm
03:07 -8.4 °C -9.8 °C 34567.7 hPa Calm   2.6 km/h 85 % 0 mm
03:12 -8.4 °C -9.9 °C 34567.7 hPa Calm   2.6 km/h 84 % 0 mm
03:17 -8.3 °C -9.9 °C 34567.7 hPa Calm   2.6 km/h 83 % 0 mm
03:27 -8.5 °C -10 °C 34567.7 hPa WNW 2.6 km/h 5.1 km/h 84 % 0 mm
03:32 -8.5 °C -10 °C 34567.7 hPa WNW 2.6 km/h 5.1 km/h 84 % 0 mm
03:42 -8.7 °C -10 °C 34567.7 hPa WNW 2.6 km/h 5.1 km/h 86 % 0 mm
03:47 -8.7 °C -9.9 °C 34567.7 hPa WNW 2.6 km/h 5.1 km/h 86 % 0 mm
03:52 -8.5 °C -9.9 °C 34567.7 hPa Calm   5.1 km/h 85 % 0 mm
04:02 -8.8 °C -10.1 °C 34567.7 hPa WNW 5.1 km/h 5.1 km/h 86 % 0 mm
04:07 -8.9 °C -10.1 °C 34567.7 hPa Calm   5.1 km/h 87 % 0 mm
04:12 -8.8 °C -10.1 °C 34567.7 hPa Calm   5.1 km/h 86 % 0 mm
04:22 -8.9 °C -10.2 °C 34567.7 hPa Calm   5.1 km/h 87 % 0 mm
04:32 -8.9 °C -10.2 °C 34554.1 hPa Calm     87 % 0 mm
04:42 -8.8 °C -10.2 °C 34554.1 hPa Calm     85 % 0 mm
04:47 -9 °C -10.3 °C 34554.1 hPa Calm     86 % 0 mm
04:52 -9.1 °C -10.2 °C 34554.1 hPa Calm     88 % 0 mm
05:02 -9.2 °C -10.3 °C 34554.1 hPa Calm     88 % 0 mm
05:22 -9.1 °C -10.3 °C 34554.1 hPa Calm   2.6 km/h 86 % 0 mm
05:32 -9.2 °C -10.4 °C 34554.1 hPa Calm   2.6 km/h 87 % 0 mm
05:42 -9.3 °C -10.4 °C 34554.1 hPa North 2.6 km/h 2.6 km/h 88 % 0 mm
05:47 -9.3 °C -10.5 °C 34544 hPa Calm   5.1 km/h 87 % 0 mm
05:52 -9.3 °C -10.4 °C 34554.1 hPa Calm   5.1 km/h 88 % 0 mm
05:57 -9.3 °C -10.4 °C 34554.1 hPa Calm   2.6 km/h 88 % 0 mm
06:02 -9.3 °C -10.4 °C 34554.1 hPa Calm   2.6 km/h 88 % 0 mm
06:12 -9.4 °C -10.5 °C 34554.1 hPa Calm     88 % 0 mm
06:17 -9.4 °C -10.5 °C 34554.1 hPa Calm     88 % 0 mm
06:22 -9.5 °C -10.6 °C 34554.1 hPa Calm     88 % 0 mm
06:32 -9.7 °C -10.7 °C 34554.1 hPa Calm     89 % 0 mm
06:42 -9.6 °C -10.5 °C 34544 hPa Calm     90 % 0 mm
06:52 -9.6 °C -10.5 °C 34544 hPa Calm     90 % 0 mm
07:02 -9.7 °C -10.6 °C 34544 hPa North 2.6 km/h   90 % 0 mm
07:12 -9.7 °C -10.6 °C 34544 hPa Calm   5.1 km/h 90 % 0 mm
07:17 -9.7 °C -10.6 °C 34554.1 hPa Calm   5.1 km/h 90 % 0 mm
07:22 -9.7 °C -10.6 °C 34544 hPa Calm   5.1 km/h 90 % 0 mm
07:32 -9.6 °C -10.4 °C 34544 hPa Calm   2.6 km/h 90 % 0 mm
07:42 -9.4 °C -10.4 °C 34554.1 hPa Calm   2.6 km/h 89 % 0 mm
07:52 -9.2 °C -10.3 °C 34554.1 hPa Calm   2.6 km/h 88 % 0 mm
08:02 -9 °C -10.1 °C 34544 hPa Calm   2.6 km/h 88 % 0 mm
08:12 -8.7 °C -9.9 °C 34544 hPa NNE 2.6 km/h 2.6 km/h 86 % 0 mm
08:17 -8.7 °C -10.1 °C 34544 hPa NNE 5.1 km/h 5.1 km/h 85 % 0 mm
08:22 -8.6 °C -10.1 °C 34544 hPa NE 5.1 km/h 5.1 km/h 84 % 0 mm
08:32 -8.2 °C -10.1 °C 34544 hPa NNE 2.6 km/h 7.7 km/h 81 % 0 mm
08:42 -7.9 °C -10.1 °C 34533.8 hPa ENE 5.1 km/h 7.7 km/h 78 % 0 mm
08:47 -7.8 °C -9.9 °C 34533.8 hPa NE 2.6 km/h 10.3 km/h 78 % 0 mm
08:52 -7.7 °C -9.8 °C 34544 hPa Calm   10.3 km/h 78 % 0 mm
09:02 -7.4 °C -9.7 °C 34544 hPa NE 10.3 km/h 10.3 km/h 77 % 0 mm
09:12 -7.2 °C -9.7 °C 34533.8 hPa East 10.3 km/h 12.9 km/h 75 % 0 mm
09:17 -7.1 °C -9.6 °C 34533.8 hPa East 2.6 km/h 12.9 km/h 75 % 0 mm
09:22 -7 °C -9.7 °C 34533.8 hPa East 2.6 km/h 12.9 km/h 74 % 0 mm
09:32 -6.6 °C -9.5 °C 34533.8 hPa SSE 7.7 km/h 10.3 km/h 72 % 0 mm
09:42 -6.1 °C -9.8 °C 34533.8 hPa East 5.1 km/h 15.6 km/h 65 % 0 mm
09:52 -5.8 °C -9.8 °C 34533.8 hPa Calm   15.6 km/h 63 % 0 mm
10:02 -5.7 °C -9.8 °C 34533.8 hPa ENE 5.1 km/h 15.6 km/h 63 % 0 mm
10:12 -5.3 °C -9.6 °C 34533.8 hPa Calm   18.2 km/h 62 % 0 mm
10:22 -5.1 °C -9.4 °C 34533.8 hPa ESE 2.6 km/h 20.8 km/h 62 % 0 mm
10:27 -5.1 °C -9.6 °C 34533.8 hPa South 7.7 km/h 20.8 km/h 60 % 0 mm
10:37 -4.8 °C -9.2 °C 34533.8 hPa SSE 2.6 km/h 15.6 km/h 61 % 0 mm
10:42 -4.7 °C -9.2 °C 34533.8 hPa ENE 2.6 km/h 15.6 km/h 60 % 0 mm
10:47 -4.5 °C -9.2 °C 34544 hPa SSE 5.1 km/h 12.9 km/h 59 % 0 mm
10:57 -4.4 °C -9.4 °C 34533.8 hPa SE 2.6 km/h 12.9 km/h 57 % 0 mm
11:02 -4.2 °C -9.4 °C 34533.8 hPa NNE 7.7 km/h 12.9 km/h 56 % 0 mm
11:12 -4.1 °C -9.4 °C 34533.8 hPa East 5.1 km/h 15.6 km/h 55 % 0 mm
11:17 -4.1 °C -9.6 °C 34533.8 hPa NE 12.9 km/h 20.8 km/h 54 % 0 mm
11:22 -4 °C -9.4 °C 34533.8 hPa East 12.9 km/h 20.8 km/h 55 % 0 mm
11:32 -3.9 °C -9.6 °C 34533.8 hPa ESE 10.3 km/h 20.8 km/h 53 % 0 mm
11:42 -3.6 °C -9.3 °C 34533.8 hPa ESE 2.6 km/h 20.8 km/h 53 % 0 mm
11:52 -3.4 °C -9.5 °C 34520.3 hPa SE 20.8 km/h 20.8 km/h 51 % 0 mm
12:02 -3.3 °C -9.5 °C 34520.3 hPa East 10.3 km/h 23.3 km/h 50 % 0 mm
12:07 -3.2 °C -9.2 °C 34520.3 hPa NE 5.1 km/h 23.3 km/h 51 % 0 mm
12:12 -3.3 °C -9.3 °C 34520.3 hPa SE 5.1 km/h 23.3 km/h 51 % 0 mm
12:17 -3.3 °C -9.5 °C 34520.3 hPa East 15.6 km/h 23.3 km/h 50 % 0 mm
12:27 -3.4 °C -9.7 °C 34520.3 hPa ENE 7.7 km/h 23.3 km/h 50 % 0 mm
12:32 -3.3 °C -9.7 °C 34520.3 hPa ENE 12.9 km/h 23.3 km/h 49 % 0 mm
12:42 -3.1 °C -9.5 °C 34510.1 hPa ESE 2.6 km/h 23.3 km/h 49 % 0 mm
12:47 -2.9 °C -9.2 °C 34510.1 hPa East 2.6 km/h 23.3 km/h 50 % 0 mm
12:52 -2.9 °C -9.5 °C 34510.1 hPa SW 2.6 km/h 23.3 km/h 48 % 0 mm
13:02 -2.7 °C -9.4 °C 34510.1 hPa East 12.9 km/h 18.2 km/h 48 % 0 mm
13:12 -2.8 °C -9.7 °C 34510.1 hPa Calm   18.2 km/h 47 % 0 mm
13:17 -2.8 °C -9.2 °C 34510.1 hPa SSE 7.7 km/h 23.3 km/h 49 % 0 mm
13:22 -2.7 °C -9.1 °C 34496.6 hPa East 12.9 km/h 23.3 km/h 49 % 0 mm
13:32 -2.4 °C -8.9 °C 34496.6 hPa Calm   18.2 km/h 49 % 0 mm
13:42 -2.4 °C -9.3 °C 34496.6 hPa East 15.6 km/h 23.3 km/h 47 % 0 mm
13:52 -2.7 °C -9.3 °C 34486.4 hPa ENE 12.9 km/h 20.8 km/h 48 % 0 mm
14:02 -2.3 °C -9.4 °C 34476.3 hPa ENE 12.9 km/h 25.9 km/h 46 % 0 mm
14:07 -2.3 °C -8.9 °C 34486.4 hPa NNE 18.2 km/h 31.1 km/h 48 % 0 mm
14:12 -2.4 °C -9.1 °C 34476.3 hPa East 5.1 km/h 31.1 km/h 48 % 0 mm
14:17 -2.3 °C -9.2 °C 34476.3 hPa ENE 31.1 km/h 31.1 km/h 47 % 0 mm
14:22 -2.3 °C -9 °C 34476.3 hPa ESE 5.1 km/h 28.5 km/h 48 % 0 mm
14:32 -2 °C -9.1 °C 34476.3 hPa ENE 12.9 km/h 33.6 km/h 46 % 0 mm
14:42 -2.1 °C -9 °C 34476.3 hPa NE 18.2 km/h 31.1 km/h 47 % 0 mm
14:47 -2.1 °C -9 °C 34476.3 hPa ENE 23.3 km/h 33.6 km/h 47 % 0 mm
14:52 -2 °C -9.1 °C 34462.7 hPa East 12.9 km/h 33.6 km/h 46 % 0 mm
14:57 -2 °C -9.1 °C 34462.7 hPa East 7.7 km/h 33.6 km/h 46 % 0 mm
15:02 -1.8 °C -9.1 °C 34462.7 hPa East 15.6 km/h 33.6 km/h 45 % 0 mm
15:07 -1.7 °C -9.2 °C 34462.7 hPa SE 5.1 km/h 31.1 km/h 44 % 0 mm
15:12 -1.7 °C -9.2 °C 34462.7 hPa ENE 18.2 km/h 31.1 km/h 44 % 0 mm
15:22 -1.7 °C -9.2 °C 34462.7 hPa ENE 7.7 km/h 25.9 km/h 44 % 0 mm
15:27 -1.6 °C -8.9 °C 34452.6 hPa ENE 20.8 km/h 25.9 km/h 45 % 0 mm
15:32 -1.6 °C -9.1 °C 34452.6 hPa ENE 15.6 km/h 25.9 km/h 44 % 0 mm
15:42 -1.6 °C -9.3 °C 34452.6 hPa ENE 12.9 km/h 25.9 km/h 43 % 0 mm
15:47 -1.6 °C -9.1 °C 34442.4 hPa East 18.2 km/h 31.1 km/h 44 % 0 mm
15:52 -1.5 °C -9.2 °C 34442.4 hPa ESE 2.6 km/h 31.1 km/h 43 % 0 mm
15:57 -1.3 °C -9.1 °C 34442.4 hPa NE 10.3 km/h 25.9 km/h 43 % 0 mm
16:02 -1.2 °C -8.9 °C 34442.4 hPa ENE 15.6 km/h 25.9 km/h 43 % 0 mm
16:12 -1.2 °C -8.9 °C 34442.4 hPa ENE 15.6 km/h 25.9 km/h 43 % 0 mm
16:22 -1.2 °C -9.1 °C 34428.8 hPa East 12.9 km/h 20.8 km/h 42 % 0 mm
16:32 -1.2 °C -9.3 °C 34418.7 hPa East 10.3 km/h 23.3 km/h 41 % 0 mm
16:42 -1.2 °C -9.1 °C 34418.7 hPa SE 7.7 km/h 28.5 km/h 42 % 0 mm
16:47 -1.1 °C -9 °C 34428.8 hPa ENE 5.1 km/h 25.9 km/h 42 % 0 mm
16:52 -0.9 °C -8.9 °C 34418.7 hPa ESE 18.2 km/h 25.9 km/h 42 % 0 mm
16:57 -1.1 °C -9.2 °C 34418.7 hPa East 7.7 km/h 33.6 km/h 41 % 0 mm
17:02 -0.9 °C -9.1 °C 34418.7 hPa ENE 5.1 km/h 33.6 km/h 41 % 0 mm
17:12 -0.9 °C -9.1 °C 34418.7 hPa Calm   23.3 km/h 41 % 0 mm
17:17 -0.9 °C -9.1 °C 34418.7 hPa East 15.6 km/h 18.2 km/h 41 % 0 mm
17:22 -1.2 °C -9.3 °C 34418.7 hPa ENE 7.7 km/h 18.2 km/h 41 % 0 mm
17:27 -1.2 °C -9.2 °C 34418.7 hPa ESE 7.7 km/h 18.2 km/h 42 % 0 mm
17:37 -1.3 °C -9 °C 34418.7 hPa Calm   15.6 km/h 43 % 0 mm
17:42 -1.2 °C -9.2 °C 34405.1 hPa ENE 7.7 km/h 15.6 km/h 42 % 0 mm
17:47 -1.2 °C -9.3 °C 34405.1 hPa ENE 5.1 km/h 15.6 km/h 41 % 0 mm
17:52 -1.2 °C -9.1 °C 34405.1 hPa ENE 2.6 km/h 15.6 km/h 42 % 0 mm
17:57 -0.9 °C -8.9 °C 34405.1 hPa ENE 10.3 km/h 15.6 km/h 42 % 0 mm
18:02 -1 °C -9.2 °C 34405.1 hPa ENE 15.6 km/h 15.6 km/h 41 % 0 mm
18:12 -1.2 °C -9.3 °C 34405.1 hPa ENE 10.3 km/h 18.2 km/h 41 % 0 mm
18:17 -1.3 °C -9.2 °C 34405.1 hPa ENE 12.9 km/h 20.8 km/h 42 % 0 mm
18:22 -1.4 °C -9.1 °C 34405.1 hPa East 2.6 km/h 20.8 km/h 43 % 0 mm
18:27 -1.4 °C -9.2 °C 34405.1 hPa East 12.9 km/h 20.8 km/h 43 % 0 mm
18:32 -1.4 °C -9.2 °C 34395 hPa East 7.7 km/h 18.2 km/h 43 % 0 mm
18:37 -1.4 °C -9.2 °C 34395 hPa East 7.7 km/h 18.2 km/h 43 % 0 mm
18:42 -1.4 °C -8.9 °C 34395 hPa ENE 5.1 km/h 20.8 km/h 44 % 0 mm
18:52 -1.6 °C -9.1 °C 34395 hPa East 5.1 km/h 15.6 km/h 44 % 0 mm
18:57 -1.6 °C -9.1 °C 34395 hPa East 10.3 km/h 18.2 km/h 44 % 0 mm
19:02 -1.7 °C -9.2 °C 34395 hPa East 5.1 km/h 18.2 km/h 44 % 0 mm
19:12 -1.8 °C -9.1 °C 34384.8 hPa ENE 5.1 km/h 15.6 km/h 45 % 0 mm
19:17 -1.8 °C -9.1 °C 34384.8 hPa ENE 5.1 km/h 12.9 km/h 45 % 0 mm
19:22 -1.8 °C -8.9 °C 34384.8 hPa East 7.7 km/h 12.9 km/h 46 % 0 mm
19:27 -1.9 °C -9 °C 34384.8 hPa East 7.7 km/h 12.9 km/h 46 % 0 mm
19:32 -1.9 °C -9 °C 34384.8 hPa Calm   12.9 km/h 46 % 0 mm
19:37 -1.9 °C -9 °C 34384.8 hPa ENE 5.1 km/h 12.9 km/h 46 % 0 mm
19:42 -2 °C -9.1 °C 34384.8 hPa ENE 10.3 km/h 12.9 km/h 46 % 0 mm
19:47 -1.9 °C -9 °C 34371.3 hPa ENE 7.7 km/h 15.6 km/h 46 % 0 mm
19:52 -1.9 °C -9 °C 34384.8 hPa Calm   15.6 km/h 46 % 0 mm
19:57 -1.9 °C -9 °C 34384.8 hPa ENE 5.1 km/h 18.2 km/h 46 % 0 mm
20:02 -1.9 °C -9 °C 34384.8 hPa East 2.6 km/h 18.2 km/h 46 % 0 mm
20:12 -2.1 °C -9.1 °C 34384.8 hPa ENE 2.6 km/h 12.9 km/h 46 % 0 mm
20:17 -2.1 °C -9 °C 34384.8 hPa East 2.6 km/h 12.9 km/h 47 % 0 mm
20:22 -2.3 °C -9 °C 34384.8 hPa East 5.1 km/h 12.9 km/h 48 % 0 mm
20:32 -2.7 °C -8.8 °C 34384.8 hPa NE 2.6 km/h 7.7 km/h 51 % 0 mm
20:37 -2.7 °C -8.7 °C 34384.8 hPa ENE 5.1 km/h 10.3 km/h 52 % 0 mm
20:42 -2.9 °C -8.5 °C 34371.3 hPa NE 12.9 km/h 12.9 km/h 54 % 0 mm
20:52 -3.2 °C -8.7 °C 34371.3 hPa NE 5.1 km/h 12.9 km/h 55 % 0 mm
21:02 -3.5 °C -8.6 °C 34371.3 hPa Calm   12.9 km/h 57 % 0 mm
21:07 -3.7 °C -8.7 °C 34384.8 hPa Calm   7.7 km/h 58 % 0 mm
21:17 -3.8 °C -8.4 °C 34384.8 hPa NW 2.6 km/h 5.1 km/h 60 % 0 mm
21:22 -4.1 °C -8.5 °C 34384.8 hPa Calm   5.1 km/h 61 % 0 mm
21:32 -4.2 °C -8.6 °C 34384.8 hPa Calm   2.6 km/h 62 % 0 mm
21:37 -4.4 °C -8.6 °C 34384.8 hPa NNW 2.6 km/h 2.6 km/h 63 % 0 mm
21:42 -4.5 °C -8.5 °C 34384.8 hPa North 2.6 km/h 2.6 km/h 64 % 0 mm
21:47 -4.6 °C -8.6 °C 34384.8 hPa Calm   5.1 km/h 64 % 0 mm
21:52 -4.6 °C -8.5 °C 34384.8 hPa NNW 2.6 km/h 5.1 km/h 65 % 0 mm
22:02 -4.9 °C -8.6 °C 34384.8 hPa WNW 2.6 km/h 5.1 km/h 67 % 0 mm
22:12 -4.8 °C -8.6 °C 34384.8 hPa Calm   5.1 km/h 66 % 0 mm
22:17 -4.9 °C -8.6 °C 34384.8 hPa WNW 2.6 km/h 5.1 km/h 67 % 0 mm
22:22 -5.2 °C -8.7 °C 34384.8 hPa WNW 2.6 km/h 5.1 km/h 68 % 0 mm
22:32 -5.1 °C -8.7 °C 34384.8 hPa Calm   5.1 km/h 67 % 0 mm
22:37 -5.2 °C -8.6 °C 34384.8 hPa WNW 2.6 km/h 7.7 km/h 68 % 0 mm
22:42 -5.4 °C -8.5 °C 34384.8 hPa WNW 2.6 km/h 7.7 km/h 71 % 0 mm
22:47 -5.5 °C -8.7 °C 34384.8 hPa NW 2.6 km/h 5.1 km/h 70 % 0 mm
22:52 -5.4 °C -8.7 °C 34384.8 hPa NW 2.6 km/h 5.1 km/h 69 % 0 mm
22:57 -5.2 °C -8.7 °C 34384.8 hPa North 5.1 km/h 5.1 km/h 68 % 0 mm
23:02 -5.3 °C -8.8 °C 34384.8 hPa North 2.6 km/h 5.1 km/h 68 % 0 mm
23:12 -5.2 °C -8.7 °C 34384.8 hPa Calm   5.1 km/h 67 % 0 mm
23:17 -5.4 °C -8.7 °C 34384.8 hPa WNW 2.6 km/h 5.1 km/h 69 % 0 mm
23:22 -5.7 °C -8.6 °C 34384.8 hPa WNW 5.1 km/h 5.1 km/h 72 % 0 mm
23:27 -5.8 °C -8.6 °C 34384.8 hPa WNW 2.6 km/h 5.1 km/h 73 % 0 mm
23:32 -5.9 °C -8.7 °C 34384.8 hPa WNW 2.6 km/h 5.1 km/h 73 % 0 mm
23:42 -5.8 °C -8.7 °C 34384.8 hPa Calm   5.1 km/h 72 % 0 mm
23:47 -5.7 °C -8.7 °C 34384.8 hPa Calm   2.6 km/h 72 % 0 mm
23:52 -5.7 °C -8.7 °C 34384.8 hPa Calm   2.6 km/h 72 % 0 mm
23:57 -5.9 °C -8.7 °C 34384.8 hPa Calm   2.6 km/h 73 % 0 mm
Meteo18
Compliments of Weather Underground - 4 mb

Script developed by  Jim McMurry - jmcmurry@mwt.net Adapted for the template by  Wim van der Kuil - Leuven-Template.eu

You find our weather info also at:

European Weather Network

Weather Underground

Equipment we use:

Weather-station
Davis Vue

Weather-program
Meteobridge

Weather-server
Raspberry PI 2 B+

Provider
1 and 1

Davis Vue

Meteobridge

Raspberry PI 2 B+

1 and 1